KJOT/JOT METAR and TAF weather

Enter ICAO airport designator
Station Type Date Time Source
KJOT METAR 2021/03/07 08:35 UTC NOAA

KJOT 070835Z AUTO 00000KT 10SM CLR M05/M06 A3038 RMK AO2 T10541063


Station Type Date Time Source
KJOT Decoded METAR 2021/03/07 08:35 UTC NOAA

Joliet, Joliet Regional Airport, IL, United States (KJOT) 41-31-05N 088-10-31W
Mar 07, 2021 - 03:35 AM EST / 2021.03.07 0835 UTC
Wind: Calm:0
Visibility: 10 mile(s):0
Sky conditions: clear
Temperature: 22.3 F (-5.4 C)
Dew Point: 20.7 F (-6.3 C)
Relative Humidity: 93%
Pressure (altimeter): 30.38 in. Hg (1028 hPa)
ob: KJOT 070835Z AUTO 00000KT 10SM CLR M05/M06 A3038 RMK AO2 T10541063
cycle: 8

Station Type Date Time Source
KJOT TAF UTC NOAA

Error!

Example: see airport list